createdAt,value
2023-01-23T00:10:41.897Z,2.00
2023-01-23T00:25:43.909Z,2.00
2023-01-23T00:40:45.801Z,1.90
2023-01-23T00:55:47.835Z,2.00
2023-01-23T01:10:50.427Z,1.90
2023-01-23T01:25:52.530Z,1.90
2023-01-23T02:13:59.915Z,1.90
2023-01-23T02:29:01.886Z,1.90
2023-01-23T02:44:19.929Z,1.80
2023-01-23T02:59:40.563Z,1.80
2023-01-23T03:14:42.625Z,1.80
2023-01-23T03:30:03.229Z,1.90
2023-01-23T03:45:06.992Z,2.00
2023-01-23T04:00:09.735Z,2.00
2023-01-23T04:15:12.094Z,2.00
2023-01-23T04:30:14.316Z,2.00
2023-01-23T04:45:16.401Z,1.90
2023-01-23T05:00:19.180Z,1.90
2023-01-23T05:15:21.526Z,2.00
2023-01-23T05:30:23.919Z,2.00
2023-01-23T05:45:25.880Z,2.00
2023-01-23T06:00:27.864Z,2.00
2023-01-23T06:15:29.880Z,2.00
2023-01-23T06:30:32.058Z,2.00
2023-01-23T06:45:34.067Z,2.10
2023-01-23T07:00:36.060Z,2.20
2023-01-23T07:15:40.886Z,2.20
2023-01-23T07:30:43.113Z,2.10
2023-01-23T07:45:45.212Z,2.20
2023-01-23T08:00:47.257Z,2.20
2023-01-23T08:15:49.302Z,2.10
2023-01-23T08:30:51.961Z,2.20
2023-01-23T08:45:56.125Z,2.30
2023-01-23T09:00:58.620Z,2.10
2023-01-23T09:16:00.996Z,2.20
2023-01-23T09:31:05.098Z,2.10
2023-01-23T09:46:30.067Z,2.20
2023-01-23T10:01:32.911Z,2.30
2023-01-23T10:16:56.539Z,2.30
2023-01-23T10:32:01.819Z,2.50
2023-01-23T10:47:13.300Z,2.40
2023-01-23T11:02:15.991Z,2.60
2023-01-23T11:17:26.438Z,2.60
2023-01-23T11:32:35.420Z,2.50
2023-01-23T11:47:59.222Z,2.60
2023-01-23T12:03:24.473Z,2.60
2023-01-23T12:19:01.438Z,2.60
2023-01-23T12:34:34.441Z,2.70
2023-01-23T12:50:00.039Z,2.80
2023-01-23T13:05:31.284Z,2.70
2023-01-23T13:20:53.787Z,2.60
2023-01-23T13:35:58.707Z,2.60
2023-01-23T14:22:00.696Z,2.60
2023-01-23T14:37:12.618Z,2.50
2023-01-23T14:52:26.145Z,2.50
2023-01-23T15:07:28.120Z,2.40
2023-01-23T15:22:30.749Z,2.40
2023-01-23T15:37:33.217Z,2.40
2023-01-23T15:52:50.807Z,2.40
2023-01-23T16:07:54.032Z,2.30
2023-01-23T16:23:01.882Z,2.20
2023-01-23T16:38:13.708Z,2.30
2023-01-23T16:53:26.367Z,2.20
2023-01-23T17:08:30.565Z,2.20
2023-01-23T17:23:32.835Z,2.30
2023-01-23T17:38:35.357Z,2.20
2023-01-23T17:53:37.365Z,2.20
2023-01-23T18:08:42.318Z,2.20
2023-01-23T18:23:44.587Z,2.20
2023-01-23T18:39:26.327Z,2.20
2023-01-23T18:54:40.310Z,2.20
2023-01-23T19:09:46.597Z,2.10
2023-01-23T19:24:48.933Z,2.10
2023-01-23T19:39:50.872Z,2.40
2023-01-23T19:54:53.006Z,2.20
2023-01-23T20:09:55.032Z,2.10
2023-01-23T20:24:57.085Z,2.10
2023-01-23T20:39:59.238Z,2.20
2023-01-23T20:55:01.296Z,2.20
2023-01-23T21:10:03.492Z,2.10
2023-01-23T21:25:05.948Z,2.20
2023-01-23T21:40:08.751Z,2.20
2023-01-23T21:55:10.740Z,2.20
2023-01-23T22:10:12.676Z,1.90
2023-01-23T22:25:14.649Z,2.20
2023-01-23T22:40:17.037Z,2.20
2023-01-23T22:55:19.646Z,2.20
2023-01-23T23:10:21.755Z,2.00
2023-01-23T23:25:23.695Z,2.10
2023-01-23T23:40:25.695Z,2.10
2023-01-23T23:55:27.611Z,2.00
